createdAt,value
2023-04-23T00:00:15.088Z,59.21
2023-04-23T00:03:13.201Z,59.31
2023-04-23T00:05:43.514Z,59.04
2023-04-23T00:08:12.445Z,59.50
2023-04-23T00:10:41.317Z,59.85
2023-04-23T00:13:10.305Z,60.62
2023-04-23T00:15:38.698Z,59.94
2023-04-23T00:18:07.176Z,60.69
2023-04-23T00:20:36.071Z,58.94
2023-04-23T00:23:04.261Z,58.96
2023-04-23T00:25:32.631Z,58.56
2023-04-23T00:28:01.058Z,59.68
2023-04-23T00:30:29.592Z,58.59
2023-04-23T00:32:58.127Z,58.09
2023-04-23T00:35:26.783Z,57.74
2023-04-23T00:37:54.938Z,58.11
2023-04-23T00:40:23.977Z,58.26
2023-04-23T00:42:53.957Z,57.37
2023-04-23T00:45:22.440Z,57.53
2023-04-23T00:47:51.317Z,57.09
2023-04-23T00:50:21.163Z,57.09
2023-04-23T00:52:49.539Z,56.78
2023-04-23T00:55:21.161Z,56.22
2023-04-23T00:57:50.075Z,56.31
2023-04-23T01:00:20.508Z,56.61
2023-04-23T01:02:50.975Z,57.19
2023-04-23T01:05:20.339Z,57.47
2023-04-23T01:07:49.341Z,57.85
2023-04-23T01:10:18.023Z,57.59
2023-04-23T01:12:47.319Z,57.60
2023-04-23T01:15:15.822Z,57.54
2023-04-23T01:17:45.200Z,57.69
2023-04-23T01:20:13.636Z,58.31
2023-04-23T01:22:41.882Z,57.86
2023-04-23T01:25:10.762Z,58.13
2023-04-23T01:27:39.310Z,59.05
2023-04-23T01:30:09.066Z,59.09
2023-04-23T01:32:37.824Z,59.78
2023-04-23T01:35:08.062Z,60.63
2023-04-23T01:37:38.597Z,59.88
2023-04-23T01:40:08.670Z,59.81
2023-04-23T01:42:36.746Z,58.28
2023-04-23T01:45:08.134Z,58.12
2023-04-23T01:47:36.887Z,57.72
2023-04-23T01:50:05.936Z,57.76
2023-04-23T01:52:34.416Z,57.74
2023-04-23T01:55:02.706Z,57.53
2023-04-23T01:57:31.105Z,58.16
2023-04-23T02:00:11.438Z,58.78
2023-04-23T02:02:44.384Z,58.05
2023-04-23T02:05:18.959Z,57.98
2023-04-23T02:07:49.376Z,58.40
2023-04-23T02:10:18.993Z,59.10
2023-04-23T02:12:48.600Z,59.06
2023-04-23T02:15:17.292Z,59.94
2023-04-23T02:17:46.323Z,59.09
2023-04-23T02:20:14.867Z,59.12
2023-04-23T02:22:43.144Z,59.71
2023-04-23T02:25:12.157Z,61.24
2023-04-23T02:27:40.417Z,62.15
2023-04-23T02:30:11.525Z,61.98
2023-04-23T02:32:40.461Z,62.85
2023-04-23T02:35:10.638Z,63.47
2023-04-23T02:37:39.907Z,64.63
2023-04-23T02:40:09.399Z,63.95
2023-04-23T02:42:38.188Z,63.44
2023-04-23T02:45:07.282Z,62.80
2023-04-23T02:47:35.660Z,62.84
2023-04-23T02:50:06.574Z,63.52
2023-04-23T02:52:34.876Z,63.05
2023-04-23T02:55:04.071Z,62.73
2023-04-23T02:57:32.917Z,63.13
2023-04-23T03:00:01.200Z,61.55
2023-04-23T03:02:35.826Z,60.70
2023-04-23T03:05:06.239Z,61.01
2023-04-23T03:07:34.583Z,61.60
2023-04-23T03:10:02.797Z,60.74
2023-04-23T03:12:31.442Z,60.48
2023-04-23T03:14:59.715Z,60.06
2023-04-23T03:17:28.885Z,58.86
2023-04-23T03:19:57.201Z,58.59
2023-04-23T03:22:25.927Z,58.44
2023-04-23T03:24:54.168Z,58.81
2023-04-23T03:27:22.857Z,59.65
2023-04-23T03:29:51.149Z,59.51
2023-04-23T03:32:19.278Z,60.17
2023-04-23T03:34:47.441Z,59.68
2023-04-23T03:37:17.192Z,59.28
2023-04-23T03:39:45.464Z,58.79
2023-04-23T03:42:14.328Z,58.72
2023-04-23T03:44:43.200Z,59.29
2023-04-23T03:47:11.749Z,59.65
2023-04-23T03:49:40.631Z,60.18
2023-04-23T03:52:09.016Z,59.33
2023-04-23T03:54:39.247Z,59.30
2023-04-23T03:57:17.785Z,59.13
2023-04-23T04:00:15.528Z,59.48
2023-04-23T04:02:44.101Z,60.64
2023-04-23T04:05:12.960Z,59.62
2023-04-23T04:07:41.599Z,58.73
2023-04-23T04:10:10.201Z,59.06
2023-04-23T04:12:40.010Z,60.50
2023-04-23T04:15:11.523Z,60.45
2023-04-23T04:17:40.014Z,61.22
2023-04-23T04:20:09.455Z,60.16
2023-04-23T04:22:37.842Z,62.15
2023-04-23T04:25:07.132Z,60.99
2023-04-23T04:27:36.045Z,61.51
2023-04-23T04:30:05.738Z,60.20
2023-04-23T04:32:34.572Z,60.26
2023-04-23T04:35:02.889Z,60.06
2023-04-23T04:37:32.406Z,59.53
2023-04-23T04:40:01.806Z,60.07
2023-04-23T04:42:30.206Z,60.73
2023-04-23T04:44:59.674Z,62.36
2023-04-23T04:47:28.178Z,62.94
2023-04-23T04:49:57.981Z,61.85
2023-04-23T04:52:26.365Z,62.68
2023-04-23T04:54:54.857Z,64.79
2023-04-23T04:57:23.337Z,62.17
2023-04-23T04:59:51.756Z,63.21
2023-04-23T05:02:22.191Z,62.39
2023-04-23T05:04:50.826Z,60.89
2023-04-23T05:07:18.973Z,61.95
2023-04-23T05:09:47.387Z,62.59
2023-04-23T05:12:15.870Z,63.23
2023-04-23T05:14:44.340Z,62.85
2023-04-23T05:17:13.347Z,62.11
2023-04-23T05:19:41.594Z,63.66
2023-04-23T05:22:09.805Z,62.60
2023-04-23T05:24:38.023Z,61.93
2023-04-23T05:27:06.476Z,61.11
2023-04-23T05:29:34.656Z,60.77
2023-04-23T05:32:03.074Z,60.78
2023-04-23T05:34:31.302Z,60.47
2023-04-23T05:36:59.717Z,60.33
2023-04-23T05:39:28.358Z,59.79
2023-04-23T05:41:56.741Z,60.51
2023-04-23T05:44:24.951Z,61.21
2023-04-23T05:46:53.296Z,63.79
2023-04-23T05:49:21.473Z,66.31
2023-04-23T05:51:51.735Z,66.67
2023-04-23T05:54:20.070Z,66.24
2023-04-23T05:56:48.553Z,64.52
2023-04-23T05:59:16.837Z,64.34
2023-04-23T06:01:45.150Z,63.30
2023-04-23T06:04:14.292Z,59.23
2023-04-23T06:06:45.972Z,51.97
2023-04-23T06:09:14.108Z,49.21
2023-04-23T06:11:42.343Z,49.58
2023-04-23T06:14:11.208Z,49.51
2023-04-23T06:16:39.311Z,48.85
2023-04-23T06:19:07.477Z,47.85
2023-04-23T06:21:35.680Z,45.55
2023-04-23T06:24:04.044Z,46.52
2023-04-23T06:26:33.244Z,45.69
2023-04-23T06:29:02.831Z,46.65
2023-04-23T06:31:35.016Z,46.07
2023-04-23T06:34:03.933Z,45.28
2023-04-23T06:36:32.580Z,46.66
2023-04-23T06:39:00.952Z,45.92
2023-04-23T06:41:29.436Z,44.25
2023-04-23T06:44:17.167Z,41.58
2023-04-23T06:46:54.516Z,39.46
2023-04-23T06:49:22.849Z,36.58
2023-04-23T06:51:51.504Z,36.02
2023-04-23T06:54:19.705Z,34.02
2023-04-23T06:56:47.967Z,33.44
2023-04-23T06:59:16.386Z,33.11
2023-04-23T07:01:47.329Z,32.55
2023-04-23T07:04:15.967Z,32.83
2023-04-23T07:06:44.382Z,31.68
2023-04-23T07:09:13.122Z,30.69
2023-04-23T07:11:41.930Z,30.49
2023-04-23T07:14:10.353Z,29.95
2023-04-23T07:16:38.758Z,30.36
2023-04-23T07:19:07.123Z,29.92
2023-04-23T07:21:36.114Z,30.67
2023-04-23T07:24:07.454Z,31.13
2023-04-23T07:26:37.205Z,32.13
2023-04-23T07:29:07.921Z,32.77
2023-04-23T07:31:37.706Z,33.30
2023-04-23T07:34:06.933Z,33.50
2023-04-23T07:36:35.718Z,33.88
2023-04-23T07:39:05.476Z,33.36
2023-04-23T07:41:33.917Z,33.48
2023-04-23T07:44:02.161Z,32.81
2023-04-23T07:46:30.521Z,32.18
2023-04-23T07:48:59.160Z,31.67
2023-04-23T07:51:27.873Z,31.67
2023-04-23T07:53:58.405Z,31.54
2023-04-23T07:56:28.298Z,31.43
2023-04-23T07:58:58.341Z,30.74
2023-04-23T08:01:27.324Z,31.36
2023-04-23T08:04:00.993Z,31.68
2023-04-23T08:06:35.375Z,31.80
2023-04-23T08:09:06.587Z,31.95
2023-04-23T08:11:35.775Z,31.67
2023-04-23T08:14:04.157Z,31.48
2023-04-23T08:16:33.024Z,31.59
2023-04-23T08:19:05.581Z,31.23
2023-04-23T08:21:35.323Z,31.07
2023-04-23T08:24:04.638Z,31.68
2023-04-23T08:26:32.915Z,31.00
2023-04-23T08:29:01.108Z,31.24
2023-04-23T08:31:29.648Z,32.01
2023-04-23T08:33:58.191Z,31.65
2023-04-23T08:36:27.805Z,30.89
2023-04-23T08:38:55.994Z,29.99
2023-04-23T08:41:31.111Z,29.22
2023-04-23T08:44:26.168Z,28.55
2023-04-23T08:46:56.068Z,28.46
2023-04-23T08:49:26.709Z,27.98
2023-04-23T08:52:00.727Z,27.99
2023-04-23T08:54:32.405Z,28.10
2023-04-23T08:57:02.066Z,27.50
2023-04-23T08:59:34.652Z,26.43
2023-04-23T09:02:10.912Z,26.94
2023-04-23T09:04:39.576Z,26.80
2023-04-23T09:07:14.084Z,26.04
2023-04-23T09:09:42.625Z,24.77
2023-04-23T09:12:11.392Z,24.36
2023-04-23T09:14:39.792Z,23.23
2023-04-23T09:17:08.222Z,25.40
2023-04-23T09:19:39.878Z,26.42
2023-04-23T09:22:09.387Z,26.62
2023-04-23T09:24:38.006Z,26.50
2023-04-23T09:27:06.347Z,26.29
2023-04-23T09:29:34.626Z,25.42
2023-04-23T09:32:08.226Z,25.33
2023-04-23T09:34:41.366Z,26.12
2023-04-23T09:37:11.342Z,26.65
2023-04-23T09:39:39.904Z,26.64
2023-04-23T09:42:11.378Z,26.32
2023-04-23T09:44:39.523Z,26.63
2023-04-23T09:47:15.035Z,27.32
2023-04-23T09:49:50.590Z,27.07
2023-04-23T09:52:19.446Z,27.88
2023-04-23T09:54:48.169Z,29.27
2023-04-23T09:57:16.919Z,28.95
2023-04-23T09:59:47.701Z,28.90
2023-04-23T10:02:19.275Z,28.86
2023-04-23T10:05:00.632Z,29.23
2023-04-23T10:07:35.459Z,28.83
2023-04-23T10:10:04.136Z,28.67
2023-04-23T10:12:52.140Z,29.71
2023-04-23T10:15:22.685Z,29.60
2023-04-23T10:17:52.064Z,30.47
2023-04-23T10:20:23.052Z,31.02
2023-04-23T10:22:54.872Z,31.48
2023-04-23T10:25:26.287Z,31.53
2023-04-23T10:27:56.578Z,32.32
2023-04-23T10:30:25.768Z,31.85
2023-04-23T10:32:55.058Z,33.04
2023-04-23T10:35:23.658Z,33.30
2023-04-23T10:37:52.617Z,33.46
2023-04-23T10:40:26.687Z,34.47
2023-04-23T10:42:55.914Z,34.69
2023-04-23T10:45:25.666Z,33.42
2023-04-23T10:47:57.607Z,33.10
2023-04-23T10:50:28.198Z,33.67
2023-04-23T10:52:58.094Z,33.45
2023-04-23T10:55:28.955Z,32.88
2023-04-23T10:58:05.321Z,34.07
2023-04-23T11:00:45.916Z,34.84
2023-04-23T11:03:30.685Z,34.19
2023-04-23T11:06:03.684Z,33.92
2023-04-23T11:08:32.779Z,34.38
2023-04-23T11:11:06.853Z,33.32
2023-04-23T11:13:35.321Z,33.30
2023-04-23T11:16:21.839Z,33.04
2023-04-23T11:19:05.366Z,32.79
2023-04-23T11:22:12.960Z,32.43
2023-04-23T11:24:43.439Z,33.03
2023-04-23T11:27:14.440Z,33.45
2023-04-23T11:29:45.503Z,33.80
2023-04-23T11:32:17.945Z,33.45
2023-04-23T11:34:48.019Z,33.74
2023-04-23T11:37:18.228Z,33.48
2023-04-23T11:39:51.809Z,33.79
2023-04-23T11:42:23.412Z,34.00
2023-04-23T11:44:53.272Z,34.04
2023-04-23T11:47:21.648Z,34.79
2023-04-23T11:49:49.928Z,34.34
2023-04-23T11:52:18.016Z,34.57
2023-04-23T11:54:46.299Z,34.86
2023-04-23T11:57:14.769Z,34.48
2023-04-23T11:59:43.602Z,34.09
2023-04-23T12:02:12.680Z,34.14
2023-04-23T12:04:41.594Z,34.07
2023-04-23T12:07:23.086Z,34.72
2023-04-23T12:10:00.586Z,33.99
2023-04-23T12:12:35.772Z,33.97
2023-04-23T12:15:06.717Z,33.96
2023-04-23T12:17:36.317Z,33.78
2023-04-23T12:20:07.281Z,33.99
2023-04-23T12:22:35.835Z,34.18
2023-04-23T12:25:09.876Z,33.28
2023-04-23T12:27:42.772Z,34.65
2023-04-23T12:30:12.222Z,34.18
2023-04-23T12:32:41.471Z,34.53
2023-04-23T12:35:11.427Z,34.84
2023-04-23T12:37:39.844Z,34.91
2023-04-23T12:40:08.918Z,35.10
2023-04-23T12:42:37.227Z,34.16
2023-04-23T12:45:07.661Z,35.16
2023-04-23T12:47:35.879Z,35.56
2023-04-23T12:50:05.842Z,37.05
2023-04-23T12:52:34.238Z,38.12
2023-04-23T12:55:05.186Z,38.87
2023-04-23T12:57:33.650Z,38.64
2023-04-23T13:00:02.540Z,38.20
2023-04-23T13:02:31.473Z,38.85
2023-04-23T13:05:01.413Z,37.96
2023-04-23T13:07:29.983Z,37.65
2023-04-23T13:09:59.774Z,38.19
2023-04-23T13:12:28.266Z,38.33
2023-04-23T13:14:57.022Z,39.35
2023-04-23T13:17:26.609Z,38.54
2023-04-23T13:19:56.243Z,38.59
2023-04-23T13:22:28.722Z,38.10
2023-04-23T13:24:57.935Z,38.98
2023-04-23T13:27:28.663Z,38.62
2023-04-23T13:29:57.171Z,39.21
2023-04-23T13:32:27.601Z,38.53
2023-04-23T13:34:56.700Z,39.37
2023-04-23T13:37:26.682Z,39.65
2023-04-23T13:39:55.064Z,39.31
2023-04-23T13:42:23.362Z,38.87
2023-04-23T13:44:51.522Z,39.48
2023-04-23T13:47:20.005Z,40.41
2023-04-23T13:49:48.493Z,40.42
2023-04-23T13:52:16.552Z,40.57
2023-04-23T13:54:47.934Z,40.20
2023-04-23T13:57:16.290Z,40.25
2023-04-23T13:59:44.678Z,40.78
2023-04-23T14:02:13.102Z,41.89
2023-04-23T14:04:41.770Z,40.81
2023-04-23T14:07:10.570Z,39.87
2023-04-23T14:09:38.864Z,39.10
2023-04-23T14:12:07.299Z,39.02
2023-04-23T14:14:35.795Z,38.68
2023-04-23T14:17:04.343Z,39.76
2023-04-23T14:19:34.810Z,39.49
2023-04-23T14:22:03.991Z,38.99
2023-04-23T14:24:39.931Z,40.55
2023-04-23T14:27:09.076Z,39.32
2023-04-23T14:29:50.764Z,38.23
2023-04-23T14:32:18.957Z,38.61
2023-04-23T14:34:47.910Z,40.10
2023-04-23T14:37:17.756Z,40.82
2023-04-23T14:39:46.947Z,41.60
2023-04-23T14:42:15.236Z,41.38
2023-04-23T14:44:43.473Z,42.17
2023-04-23T14:47:12.161Z,42.48
2023-04-23T14:49:42.050Z,42.92
2023-04-23T14:52:10.883Z,43.09
2023-04-23T14:54:39.459Z,43.01
2023-04-23T14:57:07.837Z,42.87
2023-04-23T14:59:36.128Z,42.61
2023-04-23T15:02:04.889Z,41.56
2023-04-23T15:04:35.375Z,40.58
2023-04-23T15:07:03.823Z,40.64
2023-04-23T15:09:32.202Z,40.43
2023-04-23T15:12:01.115Z,40.17
2023-04-23T15:14:36.911Z,39.35
2023-04-23T15:17:05.178Z,39.45
2023-04-23T15:19:33.500Z,41.41
2023-04-23T15:22:01.517Z,42.22
2023-04-23T15:24:29.757Z,42.70
2023-04-23T15:26:59.581Z,41.69
2023-04-23T15:29:28.465Z,42.61
2023-04-23T15:31:58.589Z,43.84
2023-04-23T15:34:27.201Z,44.05
2023-04-23T15:36:55.670Z,44.17
2023-04-23T15:39:24.544Z,44.53
2023-04-23T15:41:53.983Z,44.45
2023-04-23T15:44:22.444Z,44.28
2023-04-23T15:46:50.952Z,43.98
2023-04-23T15:49:19.206Z,44.52
2023-04-23T15:51:47.627Z,45.05
2023-04-23T15:54:15.686Z,43.76
2023-04-23T15:56:43.837Z,43.30
2023-04-23T15:59:12.364Z,42.85
2023-04-23T16:01:40.787Z,42.36
2023-04-23T16:04:11.518Z,42.09
2023-04-23T16:06:40.164Z,42.37
2023-04-23T16:09:08.970Z,43.58
2023-04-23T16:11:38.446Z,43.88
2023-04-23T16:14:07.196Z,43.88
2023-04-23T16:16:35.506Z,43.58
2023-04-23T16:19:04.197Z,43.73
2023-04-23T16:21:32.964Z,44.03
2023-04-23T16:24:01.480Z,43.98
2023-04-23T16:26:30.345Z,43.87
2023-04-23T16:29:11.128Z,43.93
2023-04-23T16:31:45.853Z,43.90
2023-04-23T16:34:14.121Z,44.43
2023-04-23T16:36:42.611Z,44.26
2023-04-23T16:39:11.662Z,44.06
2023-04-23T16:41:40.080Z,43.88
2023-04-23T16:44:08.451Z,43.57
2023-04-23T16:46:37.542Z,43.70
2023-04-23T16:49:05.958Z,43.97
2023-04-23T16:51:34.530Z,44.23
2023-04-23T16:54:02.725Z,43.99
2023-04-23T16:56:31.375Z,44.60
2023-04-23T16:59:00.270Z,45.05
2023-04-23T17:01:28.578Z,45.35
2023-04-23T17:03:57.289Z,45.56
2023-04-23T17:06:27.620Z,46.51
2023-04-23T17:09:00.133Z,46.59
2023-04-23T17:11:30.161Z,47.84
2023-04-23T17:13:58.763Z,47.96
2023-04-23T17:16:27.537Z,48.25
2023-04-23T17:18:56.934Z,47.71
2023-04-23T17:21:26.074Z,47.73
2023-04-23T17:23:54.440Z,48.48
2023-04-23T17:26:22.693Z,49.20
2023-04-23T17:28:51.795Z,49.83
2023-04-23T17:31:20.274Z,49.48
2023-04-23T17:33:50.466Z,49.75
2023-04-23T17:36:18.780Z,50.90
2023-04-23T17:38:47.097Z,53.02
2023-04-23T17:41:17.708Z,54.41
2023-04-23T17:43:46.381Z,53.30
2023-04-23T17:46:15.036Z,54.84
2023-04-23T17:48:43.247Z,55.83
2023-04-23T17:51:11.769Z,55.76
2023-04-23T17:53:43.504Z,57.07
2023-04-23T17:56:12.273Z,57.34
2023-04-23T17:58:40.756Z,57.50
2023-04-23T18:01:09.985Z,57.51
2023-04-23T18:03:38.517Z,57.06
2023-04-23T18:06:08.877Z,58.11
2023-04-23T18:08:39.028Z,57.97
2023-04-23T18:11:09.229Z,58.30
2023-04-23T18:13:37.596Z,58.96
2023-04-23T18:16:06.690Z,58.92
2023-04-23T18:18:35.009Z,57.53
2023-04-23T18:21:04.681Z,58.18
2023-04-23T18:23:35.953Z,57.53
2023-04-23T18:26:06.714Z,58.08
2023-04-23T18:28:37.203Z,58.67
2023-04-23T18:31:05.624Z,59.91
2023-04-23T18:33:47.977Z,61.57
2023-04-23T18:36:16.273Z,62.18
2023-04-23T18:38:47.955Z,61.22
2023-04-23T18:41:16.260Z,63.27
2023-04-23T18:43:44.919Z,63.01
2023-04-23T18:46:13.654Z,63.54
2023-04-23T18:48:53.330Z,63.64
2023-04-23T18:51:45.870Z,63.46
2023-04-23T18:54:15.191Z,63.51
2023-04-23T18:56:49.747Z,62.32
2023-04-23T18:59:19.723Z,62.48
2023-04-23T19:01:48.582Z,62.36
2023-04-23T19:04:17.150Z,61.76
2023-04-23T19:06:45.790Z,61.34
2023-04-23T19:09:13.924Z,60.91
2023-04-23T19:11:42.048Z,59.98
2023-04-23T19:14:10.511Z,60.17
2023-04-23T19:16:39.045Z,59.49
2023-04-23T19:19:07.605Z,59.60
2023-04-23T19:21:36.197Z,58.81
2023-04-23T19:24:04.552Z,58.14
2023-04-23T19:26:32.700Z,58.10
2023-04-23T19:29:01.135Z,58.22
2023-04-23T19:31:30.932Z,57.86
2023-04-23T19:33:59.374Z,58.11
2023-04-23T19:36:27.782Z,58.47
2023-04-23T19:38:56.495Z,59.39
2023-04-23T19:41:26.199Z,60.27
2023-04-23T19:43:54.360Z,59.47
2023-04-23T19:46:22.848Z,59.22
2023-04-23T19:48:51.531Z,59.33
2023-04-23T19:51:23.144Z,59.22
2023-04-23T19:53:51.588Z,58.94
2023-04-23T19:56:22.951Z,59.42
2023-04-23T19:58:51.296Z,59.78
2023-04-23T20:01:19.547Z,60.58
2023-04-23T20:03:52.149Z,60.00
2023-04-23T20:06:21.295Z,59.23
2023-04-23T20:09:07.883Z,60.29
2023-04-23T20:11:36.573Z,60.91
2023-04-23T20:14:05.029Z,60.33
2023-04-23T20:16:34.695Z,61.13
2023-04-23T20:19:03.659Z,61.78
2023-04-23T20:21:32.114Z,62.15
2023-04-23T20:24:00.528Z,61.48
2023-04-23T20:26:28.775Z,61.19
2023-04-23T20:28:56.912Z,61.62
2023-04-23T20:31:25.166Z,62.28
2023-04-23T20:33:53.918Z,61.19
2023-04-23T20:36:23.426Z,60.86
2023-04-23T20:38:54.475Z,60.70
2023-04-23T20:41:23.167Z,61.16
2023-04-23T20:43:52.061Z,61.94
2023-04-23T20:46:20.481Z,61.87
2023-04-23T20:48:54.081Z,60.99
2023-04-23T20:51:23.345Z,59.88
2023-04-23T20:53:52.124Z,59.58
2023-04-23T20:56:20.539Z,59.64
2023-04-23T20:58:48.795Z,59.65
2023-04-23T21:01:17.488Z,59.98
2023-04-23T21:03:46.005Z,59.81
2023-04-23T21:06:14.461Z,60.49
2023-04-23T21:08:43.055Z,61.28
2023-04-23T21:11:14.992Z,60.48
2023-04-23T21:13:43.672Z,60.36
2023-04-23T21:16:12.556Z,60.73
2023-04-23T21:18:42.088Z,60.15
2023-04-23T21:21:10.731Z,60.14
2023-04-23T21:23:38.942Z,60.54
2023-04-23T21:26:08.034Z,60.89
2023-04-23T21:28:37.263Z,60.47
2023-04-23T21:31:14.337Z,61.15
2023-04-23T21:33:43.029Z,61.14
2023-04-23T21:36:11.418Z,62.75
2023-04-23T21:38:39.476Z,62.94
2023-04-23T21:41:07.944Z,63.14
2023-04-23T21:43:36.044Z,64.04
2023-04-23T21:46:04.400Z,65.16
2023-04-23T21:48:33.624Z,65.84
2023-04-23T21:51:02.493Z,65.93
2023-04-23T21:53:31.075Z,65.43
2023-04-23T21:55:59.676Z,66.01
2023-04-23T21:58:28.248Z,65.67
2023-04-23T22:00:56.766Z,65.64
2023-04-23T22:03:37.259Z,66.93
2023-04-23T22:06:07.252Z,67.47
2023-04-23T22:08:38.281Z,66.79
2023-04-23T22:11:08.233Z,67.56
2023-04-23T22:13:36.656Z,67.06
2023-04-23T22:16:13.359Z,67.46
2023-04-23T22:18:45.231Z,67.41
2023-04-23T22:21:13.472Z,65.68
2023-04-23T22:23:41.863Z,67.13
2023-04-23T22:26:10.354Z,66.33
2023-04-23T22:28:38.612Z,65.56
2023-04-23T22:31:07.034Z,64.83
2023-04-23T22:33:36.710Z,64.71
2023-04-23T22:36:05.625Z,64.31
2023-04-23T22:38:34.732Z,64.34
2023-04-23T22:41:03.194Z,64.41
2023-04-23T22:43:31.762Z,65.04
2023-04-23T22:46:00.136Z,65.88
2023-04-23T22:48:28.845Z,66.10
2023-04-23T22:50:57.752Z,66.64
2023-04-23T22:53:25.904Z,66.16
2023-04-23T22:55:54.695Z,66.98
2023-04-23T22:58:22.788Z,66.71
2023-04-23T23:00:51.157Z,67.18
2023-04-23T23:03:19.580Z,67.09
2023-04-23T23:05:47.908Z,67.75
2023-04-23T23:08:16.231Z,67.69
2023-04-23T23:10:44.668Z,68.17
2023-04-23T23:13:12.854Z,68.49
2023-04-23T23:15:41.151Z,68.77
2023-04-23T23:18:09.338Z,69.05
2023-04-23T23:20:37.712Z,69.25
2023-04-23T23:23:06.170Z,68.94
2023-04-23T23:25:38.523Z,68.31
2023-04-23T23:28:07.067Z,66.87
2023-04-23T23:30:35.604Z,66.97
2023-04-23T23:33:04.174Z,67.40
2023-04-23T23:35:32.472Z,67.36
2023-04-23T23:38:00.753Z,68.01
2023-04-23T23:40:29.127Z,67.77
2023-04-23T23:42:57.512Z,67.50
2023-04-23T23:45:25.955Z,66.73
2023-04-23T23:47:54.808Z,67.24
2023-04-23T23:50:23.265Z,68.19
2023-04-23T23:52:52.480Z,67.20
2023-04-23T23:55:20.748Z,67.68
2023-04-23T23:57:49.024Z,66.40
